Private Wetterstation Sandau
Wetterdaten: Dienstag, 15.05.2012
Datum Zeit Temp. A. Feuchte A. Luftdruck Regen Wind Richtung Richtung Taupunkt Windchill
15.05.2012 00:01 10,8 C 58 % 1015,0 hPa 0,0 l/m 0,0 km/h (0 Bft) O-SO 112 2,9 C 10,8 C
15.05.2012 00:06 10,8 C 59 % 1015,0 hPa 0,0 l/m 1,4 km/h (1 Bft) O-SO 112 3,1 C 10,8 C
15.05.2012 00:11 10,8 C 59 % 1015,0 hPa 0,0 l/m 4,3 km/h (1 Bft) SO 135 3,1 C 10,8 C
15.05.2012 00:16 10,8 C 59 % 1015,0 hPa 0,0 l/m 4,7 km/h (1 Bft) S-SO 157 3,1 C 10,8 C
15.05.2012 00:21 10,8 C 59 % 1014,9 hPa 0,0 l/m 0,0 km/h (0 Bft) SO 135 3,1 C 10,8 C
15.05.2012 00:26 10,9 C 58 % 1014,8 hPa 0,0 l/m 2,2 km/h (1 Bft) SO 135 3,0 C 10,9 C
15.05.2012 00:31 11,1 C 58 % 1014,8 hPa 0,0 l/m 4,7 km/h (1 Bft) SO 135 3,2 C 11,1 C
15.05.2012 00:36 11,2 C 57 % 1014,7 hPa 0,0 l/m 4,0 km/h (1 Bft) S-SO 157 3,0 C 11,2 C
15.05.2012 00:41 11,3 C 57 % 1014,7 hPa 0,0 l/m 3,2 km/h (1 Bft) S-SO 157 3,1 C 11,3 C
15.05.2012 00:46 11,4 C 57 % 1014,6 hPa 0,0 l/m 10,4 km/h (2 Bft) SO 135 3,2 C 11,4 C
15.05.2012 00:51 11,4 C 57 % 1014,6 hPa 0,0 l/m 4,0 km/h (1 Bft) S 180 3,2 C 11,4 C
15.05.2012 00:56 11,4 C 56 % 1014,5 hPa 0,0 l/m 5,8 km/h (2 Bft) S-SW 202 2,9 C 11,4 C
15.05.2012 01:01 11,4 C 56 % 1014,4 hPa 0,0 l/m 8,6 km/h (2 Bft) S-SO 157 2,9 C 11,4 C
15.05.2012 01:06 11,5 C 56 % 1014,2 hPa 0,0 l/m 9,7 km/h (2 Bft) S-SO 157 3,0 C 11,5 C
15.05.2012 01:11 11,5 C 56 % 1014,2 hPa 0,0 l/m 9,0 km/h (2 Bft) S 180 3,0 C 11,5 C
15.05.2012 01:16 11,5 C 56 % 1014,2 hPa 0,0 l/m 4,0 km/h (1 Bft) S-SO 157 3,0 C 11,5 C
15.05.2012 01:21 11,4 C 56 % 1014,1 hPa 0,0 l/m 4,7 km/h (1 Bft) SO 135 2,9 C 11,4 C
15.05.2012 01:26 11,4 C 56 % 1014,1 hPa 0,0 l/m 4,0 km/h (1 Bft) S-SO 157 2,9 C 11,4 C
15.05.2012 01:31 11,4 C 56 % 1014,1 hPa 0,0 l/m 4,3 km/h (1 Bft) SO 135 2,9 C 11,4 C
15.05.2012 01:36 11,4 C 55 % 1014,0 hPa 0,0 l/m 2,5 km/h (1 Bft) SO 135 2,7 C 11,4 C
15.05.2012 01:41 11,4 C 56 % 1014,0 hPa 0,0 l/m 9,7 km/h (2 Bft) S-SO 157 2,9 C 11,4 C
15.05.2012 01:46 11,3 C 56 % 1013,9 hPa 0,0 l/m 2,9 km/h (1 Bft) S-SO 157 2,8 C 11,3 C
15.05.2012 01:51 11,3 C 56 % 1013,9 hPa 0,0 l/m 6,1 km/h (2 Bft) S-SO 157 2,8 C 11,3 C
15.05.2012 01:56 11,2 C 56 % 1013,8 hPa 0,0 l/m 2,9 km/h (1 Bft) S-SO 157 2,8 C 11,2 C
15.05.2012 02:01 11,1 C 56 % 1013,8 hPa 0,0 l/m 7,2 km/h (2 Bft) SO 135 2,7 C 11,1 C
15.05.2012 02:06 11,0 C 56 % 1013,7 hPa 0,0 l/m 3,2 km/h (1 Bft) S-SO 157 2,6 C 11,0 C
15.05.2012 02:11 10,9 C 56 % 1013,7 hPa 0,0 l/m 5,0 km/h (1 Bft) SO 135 2,5 C 10,9 C
15.05.2012 02:16 10,7 C 57 % 1013,6 hPa 0,0 l/m 0,0 km/h (0 Bft) O 90 2,5 C 10,7 C
15.05.2012 02:21 10,6 C 57 % 1013,6 hPa 0,0 l/m 1,4 km/h (1 Bft) SO 135 2,4 C 10,6 C
15.05.2012 02:26 10,4 C 58 % 1013,5 hPa 0,0 l/m 0,0 km/h (0 Bft) O-SO 112 2,5 C 10,4 C
15.05.2012 02:31 10,3 C 58 % 1013,5 hPa 0,0 l/m 2,2 km/h (1 Bft) O-NO 67 2,4 C 10,3 C
15.05.2012 02:36 10,2 C 58 % 1013,5 hPa 0,0 l/m 2,2 km/h (1 Bft) SO 135 2,3 C 10,2 C
15.05.2012 02:41 10,1 C 59 % 1013,5 hPa 0,0 l/m 0,0 km/h (0 Bft) SO 135 2,5 C 10,1 C
15.05.2012 02:46 9,9 C 59 % 1013,4 hPa 0,0 l/m 1,4 km/h (1 Bft) SO 135 2,3 C 9,9 C
15.05.2012 02:51 9,8 C 60 % 1013,4 hPa 0,0 l/m 2,9 km/h (1 Bft) SO 135 2,4 C 9,8 C
15.05.2012 02:56 9,6 C 60 % 1013,3 hPa 0,0 l/m 5,0 km/h (1 Bft) O 90 2,2 C 9,3 C
15.05.2012 03:01 9,5 C 60 % 1013,2 hPa 0,0 l/m 4,0 km/h (1 Bft) O 90 2,1 C 9,5 C
15.05.2012 03:06 9,4 C 61 % 1013,2 hPa 0,0 l/m 6,1 km/h (2 Bft) O 90 2,3 C 8,8 C
15.05.2012 03:11 9,3 C 61 % 1013,0 hPa 0,0 l/m 5,8 km/h (2 Bft) SO 135 2,2 C 8,7 C
15.05.2012 03:16 9,2 C 62 % 1012,9 hPa 0,0 l/m 3,6 km/h (1 Bft) SO 135 2,3 C 9,2 C
15.05.2012 03:21 9,1 C 62 % 1012,8 hPa 0,0 l/m 2,9 km/h (1 Bft) SO 135 2,2 C 9,1 C
15.05.2012 03:26 9,0 C 62 % 1012,7 hPa 0,0 l/m 3,6 km/h (1 Bft) O 90 2,1 C 9,0 C
15.05.2012 03:31 8,9 C 63 % 1012,8 hPa 0,0 l/m 2,9 km/h (1 Bft) SO 135 2,2 C 8,9 C
15.05.2012 03:36 8,9 C 63 % 1012,7 hPa 0,0 l/m 5,8 km/h (2 Bft) SO 135 2,2 C 8,3 C
15.05.2012 03:41 8,9 C 63 % 1012,7 hPa 0,0 l/m 0,0 km/h (0 Bft) O-SO 112 2,2 C 8,9 C
15.05.2012 03:46 8,9 C 63 % 1012,6 hPa 0,0 l/m 4,0 km/h (1 Bft) O 90 2,2 C 8,9 C
15.05.2012 03:51 8,9 C 63 % 1012,5 hPa 0,0 l/m 0,0 km/h (0 Bft) SO 135 2,2 C 8,9 C
15.05.2012 03:56 8,9 C 63 % 1012,4 hPa 0,0 l/m 5,8 km/h (2 Bft) S-SO 157 2,2 C 8,3 C
15.05.2012 04:01 8,9 C 63 % 1012,3 hPa 0,0 l/m 3,6 km/h (1 Bft) O-SO 112 2,2 C 8,9 C
15.05.2012 04:06 8,9 C 63 % 1012,3 hPa 0,0 l/m 3,2 km/h (1 Bft) SO 135 2,2 C 8,9 C
15.05.2012 04:11 8,8 C 63 % 1012,3 hPa 0,0 l/m 1,1 km/h (1 Bft) O-SO 112 2,2 C 8,8 C
15.05.2012 04:16 8,8 C 63 % 1012,2 hPa 0,0 l/m 5,8 km/h (2 Bft) SO 135 2,2 C 8,1 C
15.05.2012 04:21 8,9 C 63 % 1012,2 hPa 0,0 l/m 1,4 km/h (1 Bft) O-SO 112 2,2 C 8,9 C
15.05.2012 04:26 8,9 C 63 % 1012,2 hPa 0,0 l/m 3,2 km/h (1 Bft) SO 135 2,2 C 8,9 C
15.05.2012 04:31 8,9 C 63 % 1012,1 hPa 0,0 l/m 2,5 km/h (1 Bft) S-SO 157 2,2 C 8,9 C
15.05.2012 04:36 8,8 C 63 % 1012,0 hPa 0,0 l/m 0,0 km/h (0 Bft) SO 135 2,2 C 8,8 C
15.05.2012 04:41 8,8 C 63 % 1012,1 hPa 0,0 l/m 2,2 km/h (1 Bft) O-SO 112 2,2 C 8,8 C
15.05.2012 04:46 8,7 C 63 % 1012,0 hPa 0,0 l/m 3,6 km/h (1 Bft) O-NO 67 2,1 C 8,7 C
15.05.2012 04:51 8,6 C 64 % 1012,0 hPa 0,0 l/m 1,8 km/h (1 Bft) O-SO 112 2,2 C 8,6 C
15.05.2012 04:56 8,5 C 64 % 1011,8 hPa 0,0 l/m 3,2 km/h (1 Bft) S-SO 157 2,1 C 8,5 C
15.05.2012 05:01 8,5 C 64 % 1011,8 hPa 0,0 l/m 6,5 km/h (2 Bft) SO 135 2,1 C 7,6 C
15.05.2012 05:06 8,5 C 64 % 1011,7 hPa 0,0 l/m 0,0 km/h (0 Bft) O-SO 112 2,1 C 8,5 C
15.05.2012 05:11 8,4 C 64 % 1011,7 hPa 0,0 l/m 2,9 km/h (1 Bft) O-SO 112 2,0 C 8,4 C
15.05.2012 05:16 8,4 C 65 % 1011,7 hPa 0,0 l/m 3,2 km/h (1 Bft) SO 135 2,2 C 8,4 C
15.05.2012 05:21 8,3 C 65 % 1011,6 hPa 0,0 l/m 3,2 km/h (1 Bft) SO 135 2,1 C 8,3 C
15.05.2012 05:26 8,3 C 65 % 1011,5 hPa 0,0 l/m 7,2 km/h (2 Bft) SO 135 2,1 C 7,2 C
15.05.2012 05:31 8,3 C 65 % 1011,7 hPa 0,0 l/m 2,5 km/h (1 Bft) O-SO 112 2,1 C 8,3 C
15.05.2012 05:36 8,2 C 66 % 1011,5 hPa 0,0 l/m 8,6 km/h (2 Bft) SO 135 2,2 C 6,8 C
15.05.2012 05:41 8,2 C 66 % 1011,5 hPa 0,0 l/m 3,6 km/h (1 Bft) O 90 2,2 C 8,2 C
15.05.2012 05:46 8,2 C 66 % 1011,5 hPa 0,0 l/m 6,1 km/h (2 Bft) SO 135 2,2 C 7,4 C
15.05.2012 05:51 8,3 C 66 % 1011,4 hPa 0,0 l/m 4,0 km/h (1 Bft) O-SO 112 2,3 C 8,3 C
15.05.2012 05:56 8,6 C 66 % 1011,4 hPa 0,0 l/m 0,0 km/h (0 Bft) O 90 2,6 C 8,6 C
15.05.2012 06:01 8,8 C 66 % 1011,4 hPa 0,0 l/m 5,0 km/h (1 Bft) O-SO 112 2,8 C 8,4 C
15.05.2012 06:06 8,8 C 65 % 1011,3 hPa 0,0 l/m 8,6 km/h (2 Bft) S-SO 157 2,6 C 7,5 C
15.05.2012 06:11 8,8 C 66 % 1011,3 hPa 0,0 l/m 5,0 km/h (1 Bft) SO 135 2,8 C 8,4 C
15.05.2012 06:16 8,8 C 66 % 1011,3 hPa 0,0 l/m 3,2 km/h (1 Bft) SO 135 2,8 C 8,8 C
15.05.2012 06:21 8,9 C 66 % 1011,3 hPa 0,0 l/m 1,4 km/h (1 Bft) O 90 2,9 C 8,9 C
15.05.2012 06:26 9,3 C 66 % 1011,3 hPa 0,0 l/m 0,0 km/h (0 Bft) SO 135 3,3 C 9,3 C
15.05.2012 06:31 9,5 C 65 % 1011,4 hPa 0,0 l/m 0,0 km/h (0 Bft) O 90 3,3 C 9,5 C
15.05.2012 06:36 9,8 C 64 % 1011,3 hPa 0,0 l/m 6,1 km/h (2 Bft) SO 135 3,3 C 9,2 C
15.05.2012 06:41 9,9 C 65 % 1011,3 hPa 0,0 l/m 4,7 km/h (1 Bft) S-SO 157 3,6 C 9,7 C
15.05.2012 06:46 10,3 C 64 % 1011,4 hPa 0,0 l/m 2,9 km/h (1 Bft) SO 135 3,8 C 10,3 C
15.05.2012 06:51 10,6 C 63 % 1011,3 hPa 0,0 l/m 3,2 km/h (1 Bft) S-SO 157 3,9 C 10,6 C
15.05.2012 06:56 10,9 C 62 % 1011,1 hPa 0,0 l/m 7,6 km/h (2 Bft) O 90 3,9 C 10,9 C
15.05.2012 07:01 10,9 C 61 % 1011,1 hPa 0,0 l/m 6,5 km/h (2 Bft) O 90 3,7 C 10,9 C
15.05.2012 07:06 11,1 C 60 % 1011,1 hPa 0,0 l/m 6,8 km/h (2 Bft) SO 135 3,6 C 11,1 C
15.05.2012 07:11 11,2 C 60 % 1011,0 hPa 0,0 l/m 10,4 km/h (2 Bft) S 180 3,7 C 11,2 C
15.05.2012 07:16 11,3 C 60 % 1011,1 hPa 0,0 l/m 5,0 km/h (1 Bft) S 180 3,8 C 11,3 C
15.05.2012 07:21 11,3 C 59 % 1011,0 hPa 0,0 l/m 4,3 km/h (1 Bft) S-SO 157 3,6 C 11,3 C
15.05.2012 07:26 11,4 C 59 % 1011,0 hPa 0,0 l/m 5,4 km/h (1 Bft) S-SO 157 3,7 C 11,4 C
15.05.2012 07:31 11,5 C 59 % 1011,0 hPa 0,0 l/m 4,7 km/h (1 Bft) O-SO 112 3,8 C 11,5 C
15.05.2012 07:36 11,5 C 59 % 1011,0 hPa 0,0 l/m 9,4 km/h (2 Bft) S-SO 157 3,8 C 11,5 C
15.05.2012 07:41 11,5 C 59 % 1011,0 hPa 0,0 l/m 11,2 km/h (2 Bft) S 180 3,8 C 11,5 C
15.05.2012 07:46 11,6 C 59 % 1010,9 hPa 0,0 l/m 5,8 km/h (2 Bft) S-SO 157 3,9 C 11,6 C
15.05.2012 07:51 11,8 C 58 % 1010,8 hPa 0,0 l/m 0,0 km/h (0 Bft) SO 135 3,8 C 11,8 C
15.05.2012 07:56 11,9 C 58 % 1010,7 hPa 0,0 l/m 2,2 km/h (1 Bft) O-SO 112 3,9 C 11,9 C
15.05.2012 08:01 12,1 C 58 % 1010,5 hPa 0,0 l/m 6,8 km/h (2 Bft) S 180 4,1 C 12,1 C
15.05.2012 08:06 12,1 C 57 % 1010,5 hPa 0,0 l/m 9,7 km/h (2 Bft) S-SO 157 3,8 C 12,1 C
15.05.2012 08:11 12,1 C 57 % 1010,3 hPa 0,0 l/m 9,0 km/h (2 Bft) S-SW 202 3,8 C 12,1 C
15.05.2012 08:16 12,2 C 57 % 1010,3 hPa 0,0 l/m 6,8 km/h (2 Bft) SO 135 3,9 C 12,2 C
15.05.2012 08:21 12,2 C 57 % 1010,3 hPa 0,0 l/m 20,5 km/h (4 Bft) SO 135 3,9 C 12,2 C
15.05.2012 08:26 12,2 C 57 % 1010,3 hPa 0,0 l/m 10,4 km/h (2 Bft) SO 135 3,9 C 12,2 C
15.05.2012 08:31 12,3 C 57 % 1010,2 hPa 0,0 l/m 5,4 km/h (1 Bft) S-SO 157 4,0 C 12,3 C
15.05.2012 08:36 12,5 C 57 % 1010,3 hPa 0,0 l/m 16,6 km/h (3 Bft) S 180 4,2 C 12,5 C
15.05.2012 08:41 12,8 C 57 % 1010,3 hPa 0,0 l/m 11,2 km/h (2 Bft) SO 135 4,5 C 12,8 C
15.05.2012 08:46 13,1 C 56 % 1010,3 hPa 0,0 l/m 9,0 km/h (2 Bft) S-SO 157 4,5 C 13,1 C
15.05.2012 08:51 13,3 C 56 % 1010,2 hPa 0,0 l/m 7,2 km/h (2 Bft) O-SO 112 4,7 C 13,3 C
15.05.2012 08:56 13,5 C 55 % 1010,1 hPa 0,0 l/m 14,4 km/h (3 Bft) SO 135 4,6 C 13,5 C
15.05.2012 09:01 13,8 C 54 % 1010,1 hPa 0,0 l/m 7,6 km/h (2 Bft) S-SO 157 4,7 C 13,8 C
15.05.2012 09:06 13,9 C 54 % 1010,0 hPa 0,0 l/m 10,8 km/h (2 Bft) S-SW 202 4,7 C 13,9 C
15.05.2012 09:11 14,1 C 54 % 1010,0 hPa 0,0 l/m 13,3 km/h (3 Bft) S-SO 157 4,9 C 14,1 C
15.05.2012 09:16 14,3 C 53 % 1010,0 hPa 0,0 l/m 11,9 km/h (2 Bft) S-SO 157 4,9 C 14,3 C
15.05.2012 09:21 14,5 C 53 % 1009,9 hPa 0,0 l/m 11,5 km/h (2 Bft) SO 135 5,0 C 14,5 C
15.05.2012 09:26 14,9 C 52 % 1009,8 hPa 0,0 l/m 10,8 km/h (2 Bft) S 180 5,1 C 14,9 C
15.05.2012 09:31 14,9 C 52 % 1009,7 hPa 0,0 l/m 8,3 km/h (2 Bft) S-SO 157 5,1 C 14,9 C
15.05.2012 09:36 15,3 C 50 % 1009,6 hPa 0,0 l/m 16,6 km/h (3 Bft) O-SO 112 4,9 C 15,3 C
15.05.2012 09:41 15,6 C 50 % 1009,6 hPa 0,0 l/m 20,9 km/h (4 Bft) S-SO 157 5,2 C 15,6 C
15.05.2012 09:46 15,9 C 49 % 1009,5 hPa 0,0 l/m 11,9 km/h (2 Bft) S-SO 157 5,2 C 15,9 C
15.05.2012 09:51 16,1 C 48 % 1009,5 hPa 0,0 l/m 10,1 km/h (2 Bft) S-SO 157 5,1 C 16,1 C
15.05.2012 09:56 16,4 C 47 % 1009,3 hPa 0,0 l/m 7,9 km/h (2 Bft) O-SO 112 5,1 C 16,4 C
15.05.2012 10:01 16,7 C 46 % 1009,3 hPa 0,0 l/m 10,4 km/h (2 Bft) SO 135 5,0 C 16,7 C
15.05.2012 10:06 16,9 C 45 % 1009,3 hPa 0,0 l/m 7,6 km/h (2 Bft) O-SO 112 4,9 C 16,9 C
15.05.2012 10:11 17,1 C 45 % 1009,3 hPa 0,0 l/m 14,4 km/h (3 Bft) S-SO 157 5,1 C 17,1 C
15.05.2012 10:16 17,2 C 44 % 1009,1 hPa 0,0 l/m 12,2 km/h (2 Bft) S-SO 157 4,8 C 17,2 C
15.05.2012 10:21 17,3 C 45 % 1009,1 hPa 0,0 l/m 13,3 km/h (3 Bft) SO 135 5,3 C 17,3 C
15.05.2012 10:26 17,3 C 45 % 1009,1 hPa 0,0 l/m 5,4 km/h (1 Bft) S-SO 157 5,3 C 17,3 C
15.05.2012 10:31 17,2 C 44 % 1008,7 hPa 0,0 l/m 7,2 km/h (2 Bft) S-SO 157 4,8 C 17,2 C
15.05.2012 10:36 17,1 C 44 % 1009,0 hPa 0,0 l/m 8,6 km/h (2 Bft) SO 135 4,8 C 17,1 C
15.05.2012 10:41 17,0 C 44 % 1008,8 hPa 0,0 l/m 4,7 km/h (1 Bft) S-SO 157 4,7 C 17,0 C
15.05.2012 10:46 17,1 C 44 % 1009,0 hPa 0,0 l/m 14,8 km/h (3 Bft) S 180 4,8 C 17,1 C
15.05.2012 10:51 17,1 C 43 % 1008,7 hPa 0,0 l/m 16,2 km/h (3 Bft) S 180 4,4 C 17,1 C
15.05.2012 10:56 17,1 C 43 % 1008,7 hPa 0,0 l/m 7,6 km/h (2 Bft) S-SO 157 4,4 C 17,1 C
15.05.2012 11:01 17,2 C 43 % 1008,6 hPa 0,0 l/m 17,3 km/h (3 Bft) S-SW 202 4,5 C 17,2 C
15.05.2012 11:06 17,5 C 42 % 1008,6 hPa 0,0 l/m 10,1 km/h (2 Bft) SO 135 4,4 C 17,5 C
15.05.2012 11:11 17,9 C 41 % 1008,4 hPa 0,0 l/m 7,2 km/h (2 Bft) SO 135 4,5 C 17,9 C
15.05.2012 11:16 18,1 C 40 % 1008,4 hPa 0,0 l/m 9,7 km/h (2 Bft) O-SO 112 4,3 C 18,1 C
15.05.2012 11:21 18,3 C 39 % 1008,3 hPa 0,0 l/m 19,8 km/h (3 Bft) S-SW 202 4,1 C 18,3 C
15.05.2012 11:26 18,4 C 39 % 1008,3 hPa 0,0 l/m 20,5 km/h (4 Bft) S-SO 157 4,2 C 18,4 C
15.05.2012 11:31 18,5 C 39 % 1008,4 hPa 0,0 l/m 21,2 km/h (4 Bft) S-SO 157 4,3 C 18,5 C
15.05.2012 11:36 18,4 C 39 % 1008,3 hPa 0,0 l/m 25,2 km/h (4 Bft) SO 135 4,2 C 18,4 C
15.05.2012 11:41 18,3 C 38 % 1008,2 hPa 0,0 l/m 8,3 km/h (2 Bft) S-SO 157 3,7 C 18,3 C
15.05.2012 11:46 18,3 C 38 % 1008,2 hPa 0,0 l/m 9,4 km/h (2 Bft) S-SO 157 3,7 C 18,3 C
15.05.2012 11:51 18,3 C 38 % 1008,1 hPa 0,0 l/m 18,7 km/h (3 Bft) SO 135 3,7 C 18,3 C
15.05.2012 11:56 18,4 C 38 % 1008,0 hPa 0,0 l/m 13,7 km/h (3 Bft) S-SW 202 3,8 C 18,4 C
15.05.2012 12:01 18,4 C 38 % 1007,9 hPa 0,0 l/m 14,8 km/h (3 Bft) SO 135 3,8 C 18,4 C
15.05.2012 12:06 18,5 C 38 % 1007,9 hPa 0,0 l/m 11,2 km/h (2 Bft) S-SO 157 3,9 C 18,5 C
15.05.2012 12:11 18,6 C 37 % 1007,9 hPa 0,0 l/m 15,1 km/h (3 Bft) S 180 3,6 C 18,6 C
15.05.2012 12:16 18,8 C 37 % 1007,8 hPa 0,0 l/m 3,6 km/h (1 Bft) S-SO 157 3,8 C 18,8 C
15.05.2012 12:21 19,0 C 37 % 1007,9 hPa 0,0 l/m 21,2 km/h (4 Bft) O-SO 112 4,0 C 19,0 C
15.05.2012 12:26 19,2 C 37 % 1007,7 hPa 0,0 l/m 7,6 km/h (2 Bft) S-SO 157 4,2 C 19,2 C
15.05.2012 12:31 19,4 C 36 % 1007,6 hPa 0,0 l/m 14,8 km/h (3 Bft) S-SO 157 3,9 C 19,4 C
15.05.2012 12:36 19,7 C 36 % 1007,5 hPa 0,0 l/m 9,0 km/h (2 Bft) S 180 4,2 C 19,7 C
15.05.2012 12:41 19,9 C 35 % 1007,4 hPa 0,0 l/m 14,4 km/h (3 Bft) SO 135 4,0 C 19,9 C
15.05.2012 12:46 19,7 C 36 % 1007,4 hPa 0,0 l/m 7,2 km/h (2 Bft) W-SW 247 4,2 C 19,7 C
15.05.2012 12:51 19,5 C 36 % 1007,5 hPa 0,0 l/m 14,0 km/h (3 Bft) S 180 4,0 C 19,5 C
15.05.2012 12:56 19,3 C 36 % 1007,4 hPa 0,0 l/m 7,6 km/h (2 Bft) S 180 3,9 C 19,3 C
15.05.2012 13:01 19,1 C 36 % 1007,4 hPa 0,0 l/m 15,1 km/h (3 Bft) S 180 3,7 C 19,1 C
15.05.2012 13:06 18,9 C 36 % 1007,4 hPa 0,0 l/m 20,2 km/h (4 Bft) S-SO 157 3,5 C 18,9 C
15.05.2012 13:11 18,8 C 36 % 1007,4 hPa 0,0 l/m 16,6 km/h (3 Bft) S-SO 157 3,4 C 18,8 C
15.05.2012 13:16 18,6 C 36 % 1007,2 hPa 0,0 l/m 12,2 km/h (2 Bft) S-SO 157 3,2 C 18,6 C
15.05.2012 13:21 18,6 C 37 % 1007,3 hPa 0,0 l/m 12,6 km/h (3 Bft) S-SO 157 3,6 C 18,6 C
15.05.2012 13:26 18,7 C 37 % 1007,3 hPa 0,0 l/m 21,6 km/h (4 Bft) S-SO 157 3,7 C 18,7 C
15.05.2012 13:31 18,9 C 37 % 1007,2 hPa 0,0 l/m 5,0 km/h (1 Bft) S-SW 202 3,9 C 18,9 C
15.05.2012 13:36 19,1 C 36 % 1007,1 hPa 0,0 l/m 9,7 km/h (2 Bft) O-SO 112 3,7 C 19,1 C
15.05.2012 13:41 19,3 C 36 % 1007,0 hPa 0,0 l/m 11,5 km/h (2 Bft) S-SW 202 3,9 C 19,3 C
15.05.2012 13:46 19,3 C 36 % 1007,0 hPa 0,0 l/m 14,4 km/h (3 Bft) S-SW 202 3,9 C 19,3 C
15.05.2012 13:51 19,3 C 36 % 1006,9 hPa 0,0 l/m 13,7 km/h (3 Bft) SO 135 3,9 C 19,3 C
15.05.2012 13:56 19,4 C 36 % 1006,8 hPa 0,0 l/m 10,1 km/h (2 Bft) SW 225 3,9 C 19,4 C
15.05.2012 14:01 19,3 C 36 % 1006,8 hPa 0,0 l/m 14,8 km/h (3 Bft) S-SO 157 3,9 C 19,3 C
15.05.2012 14:06 19,3 C 36 % 1006,9 hPa 0,0 l/m 8,3 km/h (2 Bft) S 180 3,9 C 19,3 C
15.05.2012 14:11 19,3 C 36 % 1006,8 hPa 0,0 l/m 8,6 km/h (2 Bft) W-SW 247 3,9 C 19,3 C
15.05.2012 14:16 19,1 C 36 % 1006,7 hPa 0,0 l/m 11,9 km/h (2 Bft) SO 135 3,7 C 19,1 C
15.05.2012 14:21 19,1 C 37 % 1006,6 hPa 0,0 l/m 5,8 km/h (2 Bft) SO 135 4,1 C 19,1 C
15.05.2012 14:26 19,2 C 37 % 1006,6 hPa 0,0 l/m 12,6 km/h (3 Bft) SW 225 4,2 C 19,2 C
15.05.2012 14:31 19,3 C 36 % 1006,5 hPa 0,0 l/m 11,2 km/h (2 Bft) W-SW 247 3,9 C 19,3 C
15.05.2012 14:36 19,4 C 37 % 1006,4 hPa 0,0 l/m 6,1 km/h (2 Bft) W-SW 247 4,3 C 19,4 C
15.05.2012 14:41 19,4 C 36 % 1006,3 hPa 0,0 l/m 14,4 km/h (3 Bft) S-SO 157 3,9 C 19,4 C
15.05.2012 14:46 19,3 C 36 % 1006,3 hPa 0,0 l/m 4,7 km/h (1 Bft) S-SW 202 3,9 C 19,3 C
15.05.2012 14:51 19,1 C 36 % 1006,2 hPa 0,0 l/m 3,2 km/h (1 Bft) S 180 3,7 C 19,1 C
15.05.2012 14:56 18,9 C 37 % 1006,3 hPa 0,0 l/m 11,2 km/h (2 Bft) S 180 3,9 C 18,9 C
15.05.2012 15:01 18,7 C 39 % 1006,3 hPa 0,0 l/m 7,6 km/h (2 Bft) W-NW 292 4,5 C 18,7 C
15.05.2012 15:06 18,4 C 41 % 1006,3 hPa 0,0 l/m 4,3 km/h (1 Bft) W 270 4,9 C 18,4 C
15.05.2012 15:11 17,9 C 44 % 1006,3 hPa 0,0 l/m 12,2 km/h (2 Bft) W 270 5,5 C 17,9 C
15.05.2012 15:16 17,8 C 47 % 1006,4 hPa 0,0 l/m 13,7 km/h (3 Bft) W 270 6,3 C 17,8 C
15.05.2012 15:21 17,3 C 48 % 1006,6 hPa 0,0 l/m 13,7 km/h (3 Bft) NW 315 6,2 C 17,3 C
15.05.2012 15:26 16,9 C 50 % 1006,8 hPa 0,0 l/m 15,5 km/h (3 Bft) W-NW 292 6,4 C 16,9 C
15.05.2012 15:31 16,3 C 51 % 1006,9 hPa 0,0 l/m 11,5 km/h (2 Bft) W-SW 247 6,1 C 16,3 C
15.05.2012 15:36 15,9 C 53 % 1006,9 hPa 0,0 l/m 10,1 km/h (2 Bft) W-NW 292 6,3 C 15,9 C
15.05.2012 15:41 15,6 C 55 % 1006,7 hPa 0,0 l/m 12,6 km/h (3 Bft) W-NW 292 6,6 C 15,6 C
15.05.2012 15:46 15,4 C 57 % 1006,8 hPa 0,0 l/m 0,0 km/h (0 Bft) NW 315 6,9 C 15,4 C
15.05.2012 15:51 15,2 C 58 % 1006,9 hPa 0,0 l/m 22,3 km/h (4 Bft) W-NW 292 7,0 C 15,2 C
15.05.2012 15:56 14,9 C 58 % 1007,0 hPa 0,0 l/m 14,4 km/h (3 Bft) NW 315 6,7 C 14,9 C
15.05.2012 16:01 14,7 C 58 % 1007,3 hPa 0,0 l/m 13,7 km/h (3 Bft) W 270 6,5 C 14,7 C
15.05.2012 16:06 14,4 C 59 % 1007,5 hPa 0,0 l/m 12,2 km/h (2 Bft) SW 225 6,5 C 14,4 C
15.05.2012 16:11 14,1 C 60 % 1007,7 hPa 0,0 l/m 7,9 km/h (2 Bft) SW 225 6,5 C 14,1 C
15.05.2012 16:16 13,6 C 63 % 1007,9 hPa 0,0 l/m 9,4 km/h (2 Bft) W 270 6,7 C 13,6 C
15.05.2012 16:21 13,2 C 65 % 1007,9 hPa 0,5 l/m 13,3 km/h (3 Bft) W-NW 292 6,8 C 13,2 C
15.05.2012 16:26 12,7 C 66 % 1007,8 hPa 0,0 l/m 14,0 km/h (3 Bft) W 270 6,5 C 12,7 C
15.05.2012 16:31 12,3 C 68 % 1008,0 hPa 0,5 l/m 11,9 km/h (2 Bft) W-SW 247 6,6 C 12,3 C
15.05.2012 16:36 11,9 C 69 % 1008,0 hPa 0,0 l/m 8,3 km/h (2 Bft) W 270 6,4 C 11,9 C
15.05.2012 16:41 11,8 C 69 % 1008,0 hPa 0,0 l/m 12,6 km/h (3 Bft) W-NW 292 6,3 C 11,8 C
15.05.2012 16:46 11,6 C 70 % 1008,0 hPa 0,0 l/m 8,3 km/h (2 Bft) W-NW 292 6,3 C 11,6 C
15.05.2012 16:51 11,6 C 70 % 1008,1 hPa 0,0 l/m 12,6 km/h (3 Bft) W-NW 292 6,3 C 11,6 C
15.05.2012 16:56 11,5 C 70 % 1008,2 hPa 0,0 l/m 15,1 km/h (3 Bft) W 270 6,2 C 11,5 C
15.05.2012 17:01 11,3 C 70 % 1008,2 hPa 0,0 l/m 7,2 km/h (2 Bft) W 270 6,0 C 11,3 C
15.05.2012 17:06 11,2 C 71 % 1008,2 hPa 0,5 l/m 5,8 km/h (2 Bft) W-NW 292 6,1 C 11,2 C
15.05.2012 17:11 11,1 C 72 % 1008,0 hPa 0,0 l/m 3,6 km/h (1 Bft) W-NW 292 6,2 C 11,1 C
15.05.2012 17:16 10,9 C 72 % 1008,0 hPa 0,0 l/m 10,1 km/h (2 Bft) W 270 6,1 C 10,9 C
15.05.2012 17:21 10,9 C 73 % 1007,9 hPa 0,0 l/m 5,0 km/h (1 Bft) NW 315 6,3 C 10,9 C
15.05.2012 17:26 10,9 C 73 % 1007,7 hPa 0,5 l/m 6,5 km/h (2 Bft) W-NW 292 6,3 C 10,9 C
15.05.2012 17:31 10,8 C 74 % 1007,9 hPa 0,0 l/m 11,2 km/h (2 Bft) W-NW 292 6,4 C 10,8 C
15.05.2012 17:36 10,8 C 75 % 1007,6 hPa 0,5 l/m 5,0 km/h (1 Bft) W-NW 292 6,5 C 10,8 C
15.05.2012 17:41 10,8 C 75 % 1007,7 hPa 0,0 l/m 6,8 km/h (2 Bft) W-NW 292 6,5 C 10,8 C
15.05.2012 17:46 10,7 C 75 % 1007,7 hPa 0,0 l/m 5,0 km/h (1 Bft) NW 315 6,5 C 10,7 C
15.05.2012 17:51 10,6 C 75 % 1007,7 hPa 0,0 l/m 0,0 km/h (0 Bft) O-NO 67 6,4 C 10,6 C
15.05.2012 17:56 10,5 C 76 % 1007,8 hPa 0,0 l/m 1,1 km/h (1 Bft) NO 45 6,5 C 10,5 C
15.05.2012 18:01 10,4 C 76 % 1007,7 hPa 0,0 l/m 2,2 km/h (1 Bft) N 360 6,4 C 10,4 C
15.05.2012 18:06 10,3 C 77 % 1007,6 hPa 0,5 l/m 4,0 km/h (1 Bft) N 360 6,4 C 10,3 C
15.05.2012 18:11 10,2 C 77 % 1007,6 hPa 0,0 l/m 1,1 km/h (1 Bft) NO 45 6,4 C 10,2 C
15.05.2012 18:16 10,1 C 78 % 1007,6 hPa 0,0 l/m 0,0 km/h (0 Bft) N 360 6,4 C 10,1 C
15.05.2012 18:21 10,0 C 79 % 1007,4 hPa 0,0 l/m 1,1 km/h (1 Bft) N-NW 337 6,5 C 10,0 C
15.05.2012 18:26 10,1 C 80 % 1007,4 hPa 0,0 l/m 9,0 km/h (2 Bft) W 270 6,8 C 10,1 C
15.05.2012 18:31 10,2 C 80 % 1007,6 hPa 0,0 l/m 1,4 km/h (1 Bft) SW 225 6,9 C 10,2 C
15.05.2012 18:36 10,3 C 80 % 1007,8 hPa 0,0 l/m 4,0 km/h (1 Bft) W-NW 292 7,0 C 10,3 C
15.05.2012 18:41 10,4 C 80 % 1007,8 hPa 0,0 l/m 4,7 km/h (1 Bft) W-SW 247 7,1 C 10,4 C
15.05.2012 18:46 10,5 C 80 % 1008,0 hPa 0,0 l/m 10,1 km/h (2 Bft) W-SW 247 7,2 C 10,5 C
15.05.2012 18:51 10,6 C 80 % 1008,1 hPa 0,0 l/m 5,4 km/h (1 Bft) W-SW 247 7,3 C 10,6 C
15.05.2012 18:56 10,8 C 80 % 1008,1 hPa 0,5 l/m 2,5 km/h (1 Bft) W 270 7,5 C 10,8 C
15.05.2012 19:01 10,8 C 80 % 1008,2 hPa 0,0 l/m 8,3 km/h (2 Bft) W-SW 247 7,5 C 10,8 C
15.05.2012 19:06 10,8 C 80 % 1008,1 hPa 0,5 l/m 12,6 km/h (3 Bft) W-SW 247 7,5 C 10,8 C
15.05.2012 19:11 10,8 C 80 % 1008,2 hPa 0,0 l/m 10,8 km/h (2 Bft) W 270 7,5 C 10,8 C
15.05.2012 19:16 10,6 C 80 % 1008,2 hPa 1,0 l/m 14,0 km/h (3 Bft) W-SW 247 7,3 C 10,6 C
15.05.2012 19:21 10,4 C 79 % 1008,2 hPa 0,5 l/m 4,3 km/h (1 Bft) W 270 6,9 C 10,4 C
15.05.2012 19:26 10,4 C 79 % 1008,3 hPa 0,0 l/m 2,2 km/h (1 Bft) W-NW 292 6,9 C 10,4 C
15.05.2012 19:31 10,2 C 80 % 1008,2 hPa 0,5 l/m 4,0 km/h (1 Bft) W 270 6,9 C 10,2 C
15.05.2012 19:36 10,1 C 80 % 1008,2 hPa 0,5 l/m 5,0 km/h (1 Bft) W-NW 292 6,8 C 10,1 C
15.05.2012 19:41 10,1 C 80 % 1008,1 hPa 0,5 l/m 0,0 km/h (0 Bft) W-NW 292 6,8 C 10,1 C
15.05.2012 19:46 10,1 C 81 % 1008,1 hPa 0,0 l/m 5,8 km/h (2 Bft) W-NW 292 7,0 C 10,1 C
15.05.2012 19:51 10,1 C 81 % 1008,2 hPa 0,0 l/m 2,5 km/h (1 Bft) W-NW 292 7,0 C 10,1 C
15.05.2012 19:56 10,1 C 81 % 1008,3 hPa 0,0 l/m 4,7 km/h (1 Bft) W-NW 292 7,0 C 10,1 C
15.05.2012 20:01 10,1 C 81 % 1008,1 hPa 0,5 l/m 3,2 km/h (1 Bft) W-NW 292 7,0 C 10,1 C
15.05.2012 20:06 10,1 C 81 % 1007,9 hPa 0,0 l/m 3,6 km/h (1 Bft) NO 45 7,0 C 10,1 C
15.05.2012 20:11 9,9 C 81 % 1008,0 hPa 0,0 l/m 0,0 km/h (0 Bft) O-NO 67 6,8 C 9,9 C
15.05.2012 20:16 9,9 C 82 % 1008,0 hPa 0,0 l/m 0,0 km/h (0 Bft) O-NO 67 7,0 C 9,9 C
15.05.2012 20:21 9,8 C 82 % 1008,1 hPa 0,0 l/m 0,0 km/h (0 Bft) O-NO 67 6,9 C 9,8 C
15.05.2012 20:26 9,9 C 82 % 1007,9 hPa 0,0 l/m 0,0 km/h (0 Bft) O-NO 67 7,0 C 9,9 C
15.05.2012 20:31 9,9 C 82 % 1008,1 hPa 0,0 l/m 0,0 km/h (0 Bft) O-NO 67 7,0 C 9,9 C
15.05.2012 20:36 9,9 C 82 % 1008,0 hPa 0,0 l/m 0,0 km/h (0 Bft) O-NO 67 7,0 C 9,9 C
15.05.2012 20:41 9,9 C 82 % 1008,0 hPa 0,0 l/m 0,0 km/h (0 Bft) O-NO 67 7,0 C 9,9 C
15.05.2012 20:46 9,9 C 82 % 1008,0 hPa 0,0 l/m 0,0 km/h (0 Bft) O 90 7,0 C 9,9 C
15.05.2012 20:51 9,9 C 82 % 1008,1 hPa 0,0 l/m 0,0 km/h (0 Bft) O 90 7,0 C 9,9 C
15.05.2012 20:56 10,1 C 82 % 1008,4 hPa 0,0 l/m 3,2 km/h (1 Bft) SW 225 7,2 C 10,1 C
15.05.2012 21:01 10,1 C 82 % 1008,4 hPa 0,0 l/m 5,8 km/h (2 Bft) W-SW 247 7,2 C 10,1 C
15.05.2012 21:06 10,2 C 82 % 1008,6 hPa 0,0 l/m 1,1 km/h (1 Bft) SW 225 7,3 C 10,2 C
15.05.2012 21:11 10,2 C 81 % 1008,5 hPa 0,0 l/m 0,0 km/h (0 Bft) W-SW 247 7,1 C 10,2 C
15.05.2012 21:16 10,2 C 81 % 1008,5 hPa 0,0 l/m 0,0 km/h (0 Bft) W-SW 247 7,1 C 10,2 C
15.05.2012 21:21 10,2 C 81 % 1008,5 hPa 0,0 l/m 0,0 km/h (0 Bft) W-SW 247 7,1 C 10,2 C
15.05.2012 21:26 10,2 C 81 % 1008,5 hPa 0,0 l/m 1,4 km/h (1 Bft) SW 225 7,1 C 10,2 C
15.05.2012 21:31 10,3 C 81 % 1008,6 hPa 0,0 l/m 0,0 km/h (0 Bft) S 180 7,2 C 10,3 C
15.05.2012 21:36 10,3 C 81 % 1008,7 hPa 0,0 l/m 0,0 km/h (0 Bft) S 180 7,2 C 10,3 C
15.05.2012 21:41 10,3 C 81 % 1008,8 hPa 0,0 l/m 4,3 km/h (1 Bft) S 180 7,2 C 10,3 C
15.05.2012 21:46 10,3 C 81 % 1008,9 hPa 0,0 l/m 0,0 km/h (0 Bft) S-SO 157 7,2 C 10,3 C
15.05.2012 21:51 10,2 C 81 % 1008,8 hPa 0,0 l/m 0,0 km/h (0 Bft) S 180 7,1 C 10,2 C
15.05.2012 21:56 10,2 C 81 % 1008,8 hPa 0,0 l/m 1,8 km/h (1 Bft) S-SO 157 7,1 C 10,2 C
15.05.2012 22:01 10,2 C 81 % 1008,8 hPa 0,0 l/m 0,0 km/h (0 Bft) S 180 7,1 C 10,2 C
15.05.2012 22:06 10,2 C 81 % 1008,8 hPa 0,0 l/m 1,8 km/h (1 Bft) S-SO 157 7,1 C 10,2 C
15.05.2012 22:11 10,2 C 81 % 1008,8 hPa 0,0 l/m 0,0 km/h (0 Bft) SO 135 7,1 C 10,2 C
15.05.2012 22:16 10,2 C 81 % 1008,9 hPa 0,0 l/m 2,2 km/h (1 Bft) S-SO 157 7,1 C 10,2 C
15.05.2012 22:21 10,2 C 81 % 1008,9 hPa 0,0 l/m 0,0 km/h (0 Bft) S 180 7,1 C 10,2 C
15.05.2012 22:26 10,3 C 81 % 1008,9 hPa 0,0 l/m 0,0 km/h (0 Bft) S-SO 157 7,2 C 10,3 C
15.05.2012 22:31 10,2 C 81 % 1008,9 hPa 0,0 l/m 4,0 km/h (1 Bft) S 180 7,1 C 10,2 C
15.05.2012 22:36 10,2 C 81 % 1008,9 hPa 0,0 l/m 0,0 km/h (0 Bft) S-SW 202 7,1 C 10,2 C
15.05.2012 22:41 10,2 C 81 % 1008,9 hPa 0,0 l/m 1,8 km/h (1 Bft) S-SO 157 7,1 C 10,2 C
15.05.2012 22:46 10,2 C 81 % 1008,9 hPa 0,0 l/m 2,5 km/h (1 Bft) SO 135 7,1 C 10,2 C
15.05.2012 22:51 10,2 C 81 % 1009,0 hPa 0,0 l/m 2,2 km/h (1 Bft) SW 225 7,1 C 10,2 C
15.05.2012 22:56 10,2 C 81 % 1008,9 hPa 0,0 l/m 0,0 km/h (0 Bft) S-SW 202 7,1 C 10,2 C
15.05.2012 23:01 10,2 C 82 % 1008,8 hPa 0,0 l/m 4,0 km/h (1 Bft) S-SW 202 7,3 C 10,2 C
15.05.2012 23:06 10,2 C 82 % 1008,8 hPa 0,0 l/m 0,0 km/h (0 Bft) S 180 7,3 C 10,2 C
15.05.2012 23:11 10,2 C 82 % 1008,8 hPa 0,0 l/m 1,8 km/h (1 Bft) S 180 7,3 C 10,2 C
15.05.2012 23:16 10,2 C 82 % 1008,8 hPa 0,0 l/m 3,6 km/h (1 Bft) S 180 7,3 C 10,2 C
15.05.2012 23:21 10,2 C 82 % 1009,1 hPa 0,0 l/m 6,1 km/h (2 Bft) S-SO 157 7,3 C 10,2 C
15.05.2012 23:26 10,1 C 82 % 1009,2 hPa 0,0 l/m 4,3 km/h (1 Bft) S 180 7,2 C 10,1 C
15.05.2012 23:31 10,1 C 82 % 1009,2 hPa 0,0 l/m 2,5 km/h (1 Bft) S-SO 157 7,2 C 10,1 C
15.05.2012 23:36 10,1 C 82 % 1009,1 hPa 0,0 l/m 4,7 km/h (1 Bft) S-SW 202 7,2 C 10,1 C
15.05.2012 23:41 10,1 C 82 % 1009,1 hPa 0,0 l/m 3,2 km/h (1 Bft) SW 225 7,2 C 10,1 C
15.05.2012 23:46 10,1 C 82 % 1009,1 hPa 0,0 l/m 4,0 km/h (1 Bft) W 270 7,2 C 10,1 C
15.05.2012 23:51 9,9 C 83 % 1009,1 hPa 0,0 l/m 5,4 km/h (1 Bft) S-SW 202 7,2 C 9,5 C
15.05.2012 23:56 9,9 C 83 % 1009,1 hPa 0,0 l/m 11,9 km/h (2 Bft) W-SW 247 7,2 C 8,2 C
_ Min-Zeit 05:36 12:41 14:51 - 00:01 - - 05:11 05:36
Minimum _ 8,2 C 35 % 1006,2 hPa - 0,0 km/h (0 Bft) - - 2,0 C 6,8 C
_ Max-Zeit 12:41 23:51 00:01 19:16 11:36 - - 18:56 12:41
Maximum _ 19,9 C 83 % 1015,0 hPa 1,0 l/m 25,2 km/h
SO (4 Bft)
- - 7,5 C 19,9 C
Durchschnitt _ 12,6 C 61 % 1009,7 hPa #7,8 l/m 6,7 km/h (2 Bft) S-SO - 4,7 C 12,5 C
(c) by David Heller